createdAt,value
2023-04-02T00:01:00.830Z,7.61
2023-04-02T00:03:45.414Z,7.58
2023-04-02T00:06:28.359Z,7.58
2023-04-02T00:08:57.171Z,7.58
2023-04-02T00:11:33.018Z,7.57
2023-04-02T00:14:02.073Z,7.58
2023-04-02T00:16:29.921Z,7.58
2023-04-02T00:19:04.050Z,7.58
2023-04-02T00:21:39.499Z,7.59
2023-04-02T00:24:15.687Z,7.60
2023-04-02T00:26:51.574Z,7.60
2023-04-02T00:29:19.802Z,7.61
2023-04-02T00:31:50.384Z,7.61
2023-04-02T00:34:30.462Z,7.62
2023-04-02T00:36:59.087Z,7.62
2023-04-02T00:39:29.735Z,7.63
2023-04-02T00:41:59.091Z,7.62
2023-04-02T00:44:28.389Z,7.62
2023-04-02T00:46:56.090Z,7.62
2023-04-02T00:49:36.862Z,7.61
2023-04-02T00:52:10.613Z,7.61
2023-04-02T00:54:50.590Z,7.61
2023-04-02T00:57:22.231Z,7.61
2023-04-02T01:00:10.382Z,7.61
2023-04-02T01:02:38.467Z,7.61
2023-04-02T01:05:15.231Z,7.61
2023-04-02T01:08:01.363Z,7.61
2023-04-02T01:10:41.158Z,7.60
2023-04-02T01:13:41.966Z,7.59
2023-04-02T01:16:19.405Z,7.59
2023-04-02T01:19:13.594Z,7.59
2023-04-02T01:21:45.875Z,7.59
2023-04-02T01:24:14.817Z,7.58
2023-04-02T01:27:03.813Z,7.58
2023-04-02T01:29:38.733Z,7.59
2023-04-02T01:32:11.165Z,7.59
2023-04-02T01:34:39.204Z,7.58
2023-04-02T01:37:11.453Z,7.58
2023-04-02T01:39:51.074Z,7.58
2023-04-02T01:42:34.078Z,7.57
2023-04-02T01:45:08.326Z,7.56
2023-04-02T01:47:35.995Z,7.57
2023-04-02T01:50:29.865Z,7.57
2023-04-02T01:53:01.267Z,7.54
2023-04-02T01:55:46.702Z,7.54
2023-04-02T01:58:38.081Z,7.52
2023-04-02T02:01:12.890Z,7.51
2023-04-02T02:03:43.427Z,7.51
2023-04-02T02:06:13.900Z,7.50
2023-04-02T02:08:49.924Z,7.50
2023-04-02T02:11:20.783Z,7.49
2023-04-02T02:13:56.392Z,7.48
2023-04-02T02:16:25.587Z,7.47
2023-04-02T02:18:56.386Z,7.46
2023-04-02T02:21:32.983Z,7.46
2023-04-02T02:24:02.545Z,7.44
2023-04-02T02:26:33.184Z,7.43
2023-04-02T02:29:03.405Z,7.42
2023-04-02T02:31:33.242Z,7.41
2023-04-02T02:34:05.995Z,7.39
2023-04-02T02:36:55.417Z,7.38
2023-04-02T02:39:34.809Z,7.37
2023-04-02T02:42:32.530Z,7.36
2023-04-02T02:45:04.987Z,7.34
2023-04-02T02:47:36.269Z,7.31
2023-04-02T02:50:08.626Z,7.29
2023-04-02T02:52:38.262Z,7.27
2023-04-02T02:55:16.477Z,7.23
2023-04-02T02:57:48.915Z,7.21
2023-04-02T03:00:17.620Z,7.19
2023-04-02T03:02:46.640Z,7.17
2023-04-02T03:05:20.867Z,7.16
2023-04-02T03:07:53.014Z,7.15
2023-04-02T03:11:12.754Z,7.14
2023-04-02T03:13:46.119Z,7.13
2023-04-02T03:16:38.729Z,7.13
2023-04-02T03:19:19.033Z,7.13
2023-04-02T03:21:53.040Z,7.12
2023-04-02T03:24:26.769Z,7.11
2023-04-02T03:27:02.316Z,7.10
2023-04-02T03:29:33.549Z,7.09
2023-04-02T03:32:05.238Z,7.07
2023-04-02T03:34:42.533Z,7.06
2023-04-02T03:37:24.725Z,7.05
2023-04-02T03:40:15.343Z,7.03
2023-04-02T03:42:48.662Z,7.02
2023-04-02T03:45:34.072Z,7.01
2023-04-02T03:48:12.659Z,7.00
2023-04-02T03:50:56.691Z,6.99
2023-04-02T03:53:26.432Z,6.99
2023-04-02T03:55:56.199Z,6.99
2023-04-02T03:58:30.811Z,6.99
2023-04-02T04:01:20.437Z,6.97
2023-04-02T04:03:52.276Z,6.96
2023-04-02T04:06:28.240Z,6.94
2023-04-02T04:09:06.874Z,6.93
2023-04-02T04:11:37.849Z,6.92
2023-04-02T04:14:32.535Z,6.92
2023-04-02T04:17:00.319Z,6.92
2023-04-02T04:19:42.374Z,6.91
2023-04-02T04:22:22.409Z,6.91
2023-04-02T04:24:50.053Z,6.91
2023-04-02T04:28:03.191Z,6.91
2023-04-02T04:30:46.378Z,6.92
2023-04-02T04:33:19.183Z,6.92
2023-04-02T04:35:55.584Z,6.93
2023-04-02T04:38:40.250Z,6.94
2023-04-02T04:41:23.273Z,6.95
2023-04-02T04:44:01.025Z,6.96
2023-04-02T04:46:38.725Z,6.98
2023-04-02T04:49:27.350Z,6.99
2023-04-02T04:51:57.386Z,7.01
2023-04-02T04:54:27.694Z,7.00
2023-04-02T04:56:59.018Z,7.02
2023-04-02T04:59:35.423Z,7.03
2023-04-02T05:02:11.311Z,7.03
2023-04-02T05:04:43.843Z,7.04
2023-04-02T05:07:28.545Z,7.06
2023-04-02T05:10:23.847Z,7.08
2023-04-02T05:13:01.630Z,7.08
2023-04-02T05:15:35.844Z,7.11
2023-04-02T05:18:25.806Z,7.12
2023-04-02T05:21:02.804Z,7.13
2023-04-02T05:23:34.396Z,7.14
2023-04-02T05:26:23.658Z,7.16
2023-04-02T05:28:57.502Z,7.17
2023-04-02T05:31:38.599Z,7.19
2023-04-02T05:34:06.485Z,7.20
2023-04-02T05:36:34.744Z,7.21
2023-04-02T05:39:02.534Z,7.23
2023-04-02T05:41:35.055Z,7.23
2023-04-02T05:44:12.850Z,7.21
2023-04-02T05:46:54.370Z,7.19
2023-04-02T05:49:39.595Z,7.13
2023-04-02T05:52:15.138Z,7.05
2023-04-02T05:55:11.930Z,6.97
2023-04-02T05:57:59.079Z,6.89
2023-04-02T06:00:37.571Z,6.82
2023-04-02T06:03:17.823Z,6.75
2023-04-02T06:05:46.586Z,6.66
2023-04-02T06:08:24.302Z,6.58
2023-04-02T06:11:11.820Z,6.49
2023-04-02T06:13:39.587Z,6.38
2023-04-02T06:16:07.564Z,6.29
2023-04-02T06:18:36.733Z,6.24
2023-04-02T06:21:05.153Z,6.19
2023-04-02T06:24:00.272Z,6.13
2023-04-02T06:26:38.818Z,6.08
2023-04-02T06:29:13.895Z,6.03
2023-04-02T06:31:49.379Z,5.94
2023-04-02T06:34:22.440Z,5.87
2023-04-02T06:36:51.806Z,5.77
2023-04-02T06:39:22.545Z,5.72
2023-04-02T06:42:04.881Z,5.65
2023-04-02T06:44:36.078Z,5.52
2023-04-02T06:47:19.157Z,5.40
2023-04-02T06:49:51.347Z,5.32
2023-04-02T06:52:27.209Z,5.27
2023-04-02T06:54:54.881Z,5.29
2023-04-02T06:57:22.533Z,5.34
2023-04-02T06:59:50.662Z,5.38
2023-04-02T07:02:26.720Z,5.40
2023-04-02T07:05:00.395Z,5.43
2023-04-02T07:07:28.144Z,5.39
2023-04-02T07:09:55.720Z,5.33
2023-04-02T07:12:25.166Z,5.28
2023-04-02T07:14:53.261Z,5.22
2023-04-02T07:17:21.283Z,5.09
2023-04-02T07:19:49.155Z,4.97
2023-04-02T07:22:18.769Z,4.87
2023-04-02T07:24:46.692Z,4.75
2023-04-02T07:27:15.163Z,4.65
2023-04-02T07:29:42.807Z,4.51
2023-04-02T07:32:12.089Z,4.41
2023-04-02T07:34:40.901Z,4.33
2023-04-02T07:37:12.889Z,4.26
2023-04-02T07:39:40.858Z,4.23
2023-04-02T07:42:08.579Z,4.23
2023-04-02T07:44:36.257Z,4.23
2023-04-02T07:47:04.243Z,4.26
2023-04-02T07:49:31.837Z,4.28
2023-04-02T07:51:59.544Z,4.29
2023-04-02T07:54:27.166Z,4.30
2023-04-02T07:56:54.898Z,4.35
2023-04-02T07:59:22.550Z,4.38
2023-04-02T08:01:52.661Z,4.42
2023-04-02T08:04:22.020Z,4.44
2023-04-02T08:06:50.412Z,4.49
2023-04-02T08:09:18.123Z,4.53
2023-04-02T08:11:45.757Z,4.54
2023-04-02T08:14:13.758Z,4.58
2023-04-02T08:16:52.716Z,4.61
2023-04-02T08:19:20.631Z,4.66
2023-04-02T08:21:49.521Z,4.71
2023-04-02T08:24:18.041Z,4.75
2023-04-02T08:26:46.350Z,4.77
2023-04-02T08:29:14.402Z,4.85
2023-04-02T08:31:42.025Z,4.94
2023-04-02T08:34:09.855Z,4.93
2023-04-02T08:36:39.855Z,4.88
2023-04-02T08:39:08.335Z,4.77
2023-04-02T08:41:40.133Z,4.70
2023-04-02T08:44:22.207Z,4.73
2023-04-02T08:47:04.239Z,4.73
2023-04-02T08:49:49.556Z,4.71
2023-04-02T08:52:24.754Z,4.77
2023-04-02T08:54:52.953Z,4.79
2023-04-02T08:57:37.899Z,4.84
2023-04-02T09:00:26.652Z,4.80
2023-04-02T09:03:10.558Z,4.77
2023-04-02T09:05:42.386Z,4.73
2023-04-02T09:08:19.972Z,4.61
2023-04-02T09:11:12.536Z,4.55
2023-04-02T09:13:46.977Z,4.47
2023-04-02T09:16:17.318Z,4.44
2023-04-02T09:18:45.838Z,4.40
2023-04-02T09:21:22.267Z,4.40
2023-04-02T09:23:50.041Z,4.42
2023-04-02T09:26:22.726Z,4.44
2023-04-02T09:29:01.843Z,4.50
2023-04-02T09:31:55.671Z,4.52
2023-04-02T09:34:35.191Z,4.54
2023-04-02T09:37:29.167Z,4.52
2023-04-02T09:40:15.777Z,4.54
2023-04-02T09:42:43.393Z,4.53
2023-04-02T09:45:24.761Z,4.61
2023-04-02T09:47:55.484Z,4.68
2023-04-02T09:50:29.873Z,4.69
2023-04-02T09:52:57.828Z,4.76
2023-04-02T09:55:29.622Z,4.82
2023-04-02T09:58:17.005Z,4.89
2023-04-02T10:00:52.514Z,4.97
2023-04-02T10:03:32.260Z,5.07
2023-04-02T10:06:09.195Z,5.14
2023-04-02T10:08:38.562Z,5.12
2023-04-02T10:11:12.967Z,5.08
2023-04-02T10:13:53.278Z,4.99
2023-04-02T10:16:27.750Z,4.91
2023-04-02T10:18:59.398Z,4.75
2023-04-02T10:21:32.383Z,4.66
2023-04-02T10:24:00.148Z,4.61
2023-04-02T10:26:38.215Z,4.53
2023-04-02T10:29:34.880Z,4.46
2023-04-02T10:32:44.600Z,4.38
2023-04-02T10:35:31.831Z,4.26
2023-04-02T10:38:13.952Z,4.16
2023-04-02T10:40:59.702Z,4.14
2023-04-02T10:43:47.485Z,4.14
2023-04-02T10:46:25.604Z,4.13
2023-04-02T10:49:19.631Z,4.15
2023-04-02T10:52:51.897Z,4.18
2023-04-02T10:55:22.145Z,4.27
2023-04-02T10:57:52.893Z,4.27
2023-04-02T11:00:26.081Z,4.20
2023-04-02T11:03:06.430Z,4.15
2023-04-02T11:05:47.274Z,4.15
2023-04-02T11:08:26.289Z,4.21
2023-04-02T11:11:16.848Z,4.25
2023-04-02T11:13:56.514Z,4.36
2023-04-02T11:16:25.401Z,4.46
2023-04-02T11:19:17.277Z,4.53
2023-04-02T11:21:58.833Z,4.61
2023-04-02T11:24:30.967Z,4.73
2023-04-02T11:27:12.331Z,4.82
2023-04-02T11:29:55.069Z,4.89
2023-04-02T11:32:22.769Z,4.91
2023-04-02T11:35:02.983Z,4.89
2023-04-02T11:37:36.816Z,4.81
2023-04-02T11:40:13.239Z,4.77
2023-04-02T11:42:41.982Z,4.72
2023-04-02T11:45:21.486Z,4.65
2023-04-02T11:48:01.116Z,4.57
2023-04-02T11:50:36.005Z,4.51
2023-04-02T11:53:12.511Z,4.50
2023-04-02T11:55:47.314Z,4.46
2023-04-02T11:58:48.404Z,4.42
2023-04-02T12:01:15.916Z,4.40
2023-04-02T12:04:13.706Z,4.43
2023-04-02T12:06:44.042Z,4.55
2023-04-02T12:09:35.531Z,4.67
2023-04-02T12:12:18.180Z,4.72
2023-04-02T12:14:48.447Z,4.63
2023-04-02T12:17:24.302Z,4.53
2023-04-02T12:19:55.497Z,4.48
2023-04-02T12:22:26.132Z,4.50
2023-04-02T12:24:58.671Z,4.54
2023-04-02T12:27:28.943Z,4.70
2023-04-02T12:30:30.846Z,4.87
2023-04-02T12:33:14.916Z,5.05
2023-04-02T12:35:44.111Z,5.16
2023-04-02T12:38:20.584Z,5.16
2023-04-02T12:40:53.022Z,5.06
2023-04-02T12:43:32.269Z,4.98
2023-04-02T12:46:02.930Z,4.80
2023-04-02T12:48:31.794Z,4.60
2023-04-02T12:51:00.826Z,4.35
2023-04-02T12:53:36.281Z,4.20
2023-04-02T12:56:04.246Z,4.12
2023-04-02T12:58:42.708Z,4.12
2023-04-02T13:01:16.200Z,4.20
2023-04-02T13:03:44.930Z,4.33
2023-04-02T13:06:22.537Z,4.49
2023-04-02T13:08:50.809Z,4.50
2023-04-02T13:11:22.169Z,4.49
2023-04-02T13:13:50.436Z,4.48
2023-04-02T13:16:18.658Z,4.50
2023-04-02T13:18:49.294Z,4.48
2023-04-02T13:21:17.216Z,4.45
2023-04-02T13:23:45.943Z,4.40
2023-04-02T13:26:26.115Z,4.38
2023-04-02T13:28:59.680Z,4.34
2023-04-02T13:31:32.807Z,4.26
2023-04-02T13:34:01.154Z,4.21
2023-04-02T13:36:30.965Z,4.18
2023-04-02T13:38:59.287Z,4.17
2023-04-02T13:41:32.656Z,4.16
2023-04-02T13:44:03.290Z,4.13
2023-04-02T13:46:33.997Z,4.09
2023-04-02T13:49:02.464Z,4.07
2023-04-02T13:51:43.558Z,4.03
2023-04-02T13:54:18.600Z,4.01
2023-04-02T13:56:46.869Z,4.12
2023-04-02T13:59:18.444Z,4.32
2023-04-02T14:01:47.573Z,4.32
2023-04-02T14:04:22.356Z,4.22
2023-04-02T14:07:03.678Z,4.15
2023-04-02T14:09:43.686Z,4.09
2023-04-02T14:12:48.913Z,4.05
2023-04-02T14:15:25.418Z,4.10
2023-04-02T14:18:47.610Z,4.21
2023-04-02T14:21:34.107Z,4.21
2023-04-02T14:24:07.998Z,4.12
2023-04-02T14:26:44.432Z,4.07
2023-04-02T14:29:12.444Z,4.03
2023-04-02T14:32:07.186Z,4.00
2023-04-02T14:34:59.553Z,3.96
2023-04-02T14:37:56.460Z,3.90
2023-04-02T14:40:48.871Z,3.86
2023-04-02T14:43:28.050Z,3.81
2023-04-02T14:46:04.360Z,3.77
2023-04-02T14:48:54.273Z,3.74
2023-04-02T14:51:44.171Z,3.74
2023-04-02T14:54:35.667Z,3.71
2023-04-02T14:57:27.812Z,3.67
2023-04-02T15:00:03.455Z,3.67
2023-04-02T15:02:46.958Z,3.67
2023-04-02T15:05:24.636Z,3.68
2023-04-02T15:07:58.109Z,3.69
2023-04-02T15:10:36.535Z,3.69
2023-04-02T15:13:14.205Z,3.69
2023-04-02T15:15:42.199Z,3.70
2023-04-02T15:18:16.224Z,3.68
2023-04-02T15:21:08.636Z,3.64
2023-04-02T15:23:53.591Z,3.58
2023-04-02T15:26:21.291Z,3.55
2023-04-02T15:28:52.227Z,3.53
2023-04-02T15:31:25.982Z,3.53
2023-04-02T15:34:28.388Z,3.51
2023-04-02T15:37:02.302Z,3.51
2023-04-02T15:39:45.944Z,3.49
2023-04-02T15:42:17.553Z,3.45
2023-04-02T15:44:55.753Z,3.48
2023-04-02T15:47:57.132Z,3.59
2023-04-02T15:50:49.734Z,3.73
2023-04-02T15:53:29.706Z,3.84
2023-04-02T15:56:25.986Z,3.88
2023-04-02T15:59:05.938Z,3.88
2023-04-02T16:02:11.309Z,3.88
2023-04-02T16:04:41.788Z,3.85
2023-04-02T16:07:39.244Z,3.82
2023-04-02T16:10:09.723Z,3.77
2023-04-02T16:12:39.408Z,3.72
2023-04-02T16:15:34.772Z,3.69
2023-04-02T16:18:08.038Z,3.66
2023-04-02T16:20:40.935Z,3.63
2023-04-02T16:23:14.630Z,3.57
2023-04-02T16:25:56.549Z,3.47
2023-04-02T16:28:29.640Z,3.39
2023-04-02T16:31:25.013Z,3.33
2023-04-02T16:34:14.829Z,3.29
2023-04-02T16:36:54.520Z,3.24
2023-04-02T16:39:47.236Z,3.22
2023-04-02T16:42:39.876Z,3.19
2023-04-02T16:45:28.481Z,3.16
2023-04-02T16:48:11.643Z,3.14
2023-04-02T16:51:03.908Z,3.11
2023-04-02T16:54:01.669Z,3.07
2023-04-02T16:57:08.256Z,3.00
2023-04-02T17:00:21.330Z,2.95
2023-04-02T17:03:18.908Z,2.91
2023-04-02T17:06:11.137Z,2.86
2023-04-02T17:09:01.726Z,2.83
2023-04-02T17:12:01.944Z,2.79
2023-04-02T17:14:47.381Z,2.76
2023-04-02T17:17:15.366Z,2.74
2023-04-02T17:19:44.642Z,2.72
2023-04-02T17:22:20.030Z,2.71
2023-04-02T17:24:53.143Z,2.69
2023-04-02T17:27:28.048Z,2.68
2023-04-02T17:30:17.562Z,2.67
2023-04-02T17:32:46.499Z,2.66
2023-04-02T17:35:33.359Z,2.65
2023-04-02T17:38:06.659Z,2.64
2023-04-02T17:40:51.436Z,2.62
2023-04-02T17:43:41.258Z,2.61
2023-04-02T17:46:35.376Z,2.61
2023-04-02T17:49:05.599Z,2.60
2023-04-02T17:51:38.407Z,2.58
2023-04-02T17:54:12.234Z,2.56
2023-04-02T17:57:02.086Z,2.55
2023-04-02T18:00:05.466Z,2.54
2023-04-02T18:02:47.479Z,2.53
2023-04-02T18:05:15.154Z,2.51
2023-04-02T18:07:54.594Z,2.50
2023-04-02T18:10:26.957Z,2.50
2023-04-02T18:13:16.558Z,2.49
2023-04-02T18:15:57.084Z,2.49
2023-04-02T18:18:37.415Z,2.47
2023-04-02T18:21:42.260Z,2.47
2023-04-02T18:24:51.721Z,2.45
2023-04-02T18:27:28.747Z,2.45
2023-04-02T18:30:08.820Z,2.44
2023-04-02T18:33:00.096Z,2.42
2023-04-02T18:35:49.148Z,2.42
2023-04-02T18:38:53.106Z,2.41
2023-04-02T18:41:39.657Z,2.41
2023-04-02T18:44:21.588Z,2.41
2023-04-02T18:46:56.342Z,2.41
2023-04-02T18:49:34.550Z,2.40
2023-04-02T18:52:09.418Z,2.39
2023-04-02T18:55:03.805Z,2.39
2023-04-02T18:57:39.255Z,2.39
2023-04-02T19:00:29.821Z,2.36
2023-04-02T19:03:20.743Z,2.35
2023-04-02T19:05:54.413Z,2.34
2023-04-02T19:08:40.463Z,2.32
2023-04-02T19:11:17.974Z,2.32
2023-04-02T19:13:45.935Z,2.33
2023-04-02T19:16:32.607Z,2.33
2023-04-02T19:19:22.389Z,2.31
2023-04-02T19:22:12.305Z,2.30
2023-04-02T19:25:16.773Z,2.30
2023-04-02T19:28:02.490Z,2.31
2023-04-02T19:30:53.793Z,2.32
2023-04-02T19:33:52.723Z,2.33
2023-04-02T19:36:53.501Z,2.31
2023-04-02T19:39:42.586Z,2.31
2023-04-02T19:42:34.312Z,2.30
2023-04-02T19:45:02.775Z,2.27
2023-04-02T19:47:30.385Z,2.26
2023-04-02T19:49:58.083Z,2.24
2023-04-02T19:52:25.760Z,2.24
2023-04-02T19:54:53.461Z,2.22
2023-04-02T19:57:21.195Z,2.21
2023-04-02T19:59:48.867Z,2.21
2023-04-02T20:02:16.441Z,2.20
2023-04-02T20:04:44.031Z,2.19
2023-04-02T20:07:11.974Z,2.17
2023-04-02T20:09:39.579Z,2.13
2023-04-02T20:12:07.195Z,2.10
2023-04-02T20:14:34.854Z,2.08
2023-04-02T20:17:02.447Z,2.08
2023-04-02T20:19:30.120Z,2.07
2023-04-02T20:21:57.728Z,2.07
2023-04-02T20:24:25.394Z,2.07
2023-04-02T20:26:52.953Z,2.07
2023-04-02T20:29:20.516Z,2.07
2023-04-02T20:31:48.156Z,2.06
2023-04-02T20:34:15.931Z,2.07
2023-04-02T20:36:43.741Z,2.07
2023-04-02T20:39:11.528Z,2.07
2023-04-02T20:41:39.096Z,2.07
2023-04-02T20:44:06.672Z,2.07
2023-04-02T20:46:34.366Z,2.07
2023-04-02T20:49:02.154Z,2.07
2023-04-02T20:51:29.870Z,2.05
2023-04-02T20:53:58.346Z,2.04
2023-04-02T20:56:25.988Z,2.03
2023-04-02T20:58:53.682Z,2.01
2023-04-02T21:01:27.180Z,1.99
2023-04-02T21:04:00.509Z,1.97
2023-04-02T21:06:31.170Z,1.98
2023-04-02T21:09:00.561Z,1.97
2023-04-02T21:11:28.479Z,1.96
2023-04-02T21:13:56.312Z,1.98
2023-04-02T21:16:26.408Z,2.00
2023-04-02T21:18:56.202Z,2.00
2023-04-02T21:21:24.428Z,2.00
2023-04-02T21:24:00.049Z,2.02
2023-04-02T21:26:30.113Z,2.04
2023-04-02T21:28:58.198Z,2.04
2023-04-02T21:31:33.321Z,2.07
2023-04-02T21:34:01.212Z,2.07
2023-04-02T21:36:35.046Z,2.08
2023-04-02T21:39:05.779Z,2.08
2023-04-02T21:41:41.709Z,2.09
2023-04-02T21:44:13.180Z,2.08
2023-04-02T21:46:41.604Z,2.05
2023-04-02T21:49:15.371Z,1.98
2023-04-02T21:51:44.076Z,1.92
2023-04-02T21:54:12.451Z,1.90
2023-04-02T21:56:42.479Z,1.91
2023-04-02T21:59:12.102Z,1.88
2023-04-02T22:01:51.089Z,1.88
2023-04-02T22:04:22.042Z,1.87
2023-04-02T22:06:50.717Z,1.84
2023-04-02T22:09:21.722Z,1.83
2023-04-02T22:11:52.597Z,1.80
2023-04-02T22:14:20.438Z,1.76
2023-04-02T22:16:48.087Z,1.74
2023-04-02T22:19:16.536Z,1.72
2023-04-02T22:21:44.141Z,1.69
2023-04-02T22:24:14.929Z,1.67
2023-04-02T22:26:42.762Z,1.64
2023-04-02T22:29:10.718Z,1.59
2023-04-02T22:31:38.370Z,1.55
2023-04-02T22:34:06.386Z,1.51
2023-04-02T22:36:34.819Z,1.49
2023-04-02T22:39:02.923Z,1.46
2023-04-02T22:41:30.454Z,1.41
2023-04-02T22:43:59.917Z,1.36
2023-04-02T22:46:28.613Z,1.33
2023-04-02T22:48:57.085Z,1.31
2023-04-02T22:51:26.027Z,1.29
2023-04-02T22:53:55.383Z,1.27
2023-04-02T22:56:27.495Z,1.26
2023-04-02T22:58:55.120Z,1.24
2023-04-02T23:01:25.826Z,1.20
2023-04-02T23:03:54.625Z,1.19
2023-04-02T23:06:22.473Z,1.19
2023-04-02T23:08:50.112Z,1.18
2023-04-02T23:11:21.039Z,1.18
2023-04-02T23:13:50.574Z,1.16
2023-04-02T23:16:18.983Z,1.16
2023-04-02T23:18:47.119Z,1.15
2023-04-02T23:21:16.303Z,1.14
2023-04-02T23:23:44.133Z,1.12
2023-04-02T23:26:20.491Z,1.11
2023-04-02T23:28:49.292Z,1.11
2023-04-02T23:31:20.118Z,1.11
2023-04-02T23:33:48.184Z,1.13
2023-04-02T23:36:22.739Z,1.15
2023-04-02T23:38:54.882Z,1.18
2023-04-02T23:41:24.923Z,1.21
2023-04-02T23:43:53.002Z,1.23
2023-04-02T23:46:20.935Z,1.25
2023-04-02T23:48:51.598Z,1.23
2023-04-02T23:51:19.571Z,1.23
2023-04-02T23:53:48.415Z,1.23
2023-04-02T23:56:16.205Z,1.24
2023-04-02T23:58:44.176Z,1.24
